createdAt,value
2022-11-21T00:01:21.445Z,99574.84
2022-11-21T00:03:49.081Z,99578.06
2022-11-21T00:06:17.328Z,99577.06
2022-11-21T00:08:45.074Z,99583.13
2022-11-21T00:11:12.725Z,99582.00
2022-11-21T00:13:40.749Z,99581.91
2022-11-21T00:16:12.562Z,99579.19
2022-11-21T00:18:39.900Z,99577.63
2022-11-21T00:21:11.371Z,99581.34
2022-11-21T00:23:38.368Z,99580.66
2022-11-21T00:26:07.143Z,99573.28
2022-11-21T00:28:35.369Z,99580.78
2022-11-21T00:31:03.689Z,99584.66
2022-11-21T00:33:30.885Z,99584.88
2022-11-21T00:35:58.001Z,99582.38
2022-11-21T00:38:24.907Z,99582.16
2022-11-21T00:40:51.914Z,99579.56
2022-11-21T00:43:18.805Z,99586.50
2022-11-21T00:45:45.789Z,99581.16
2022-11-21T00:48:12.732Z,99579.00
2022-11-21T00:50:39.679Z,99577.31
2022-11-21T00:53:06.625Z,99581.19
2022-11-21T00:55:33.534Z,99569.88
2022-11-21T00:58:00.457Z,99564.81
2022-11-21T01:00:27.458Z,99561.00
2022-11-21T01:02:54.447Z,99545.91
2022-11-21T01:05:21.435Z,99552.06
2022-11-21T01:07:51.550Z,99552.19
2022-11-21T01:10:18.710Z,99549.38
2022-11-21T01:12:45.754Z,99543.19
2022-11-21T01:15:12.743Z,99534.13
2022-11-21T01:17:39.689Z,99536.44
2022-11-21T01:20:07.685Z,99533.63
2022-11-21T01:22:34.654Z,99530.72
2022-11-21T01:25:01.601Z,99525.31
2022-11-21T01:27:28.529Z,99527.91
2022-11-21T01:29:55.474Z,99534.91
2022-11-21T01:32:22.376Z,99532.13
2022-11-21T01:34:49.321Z,99528.72
2022-11-21T01:37:16.266Z,99530.69
2022-11-21T01:39:43.162Z,99532.16
2022-11-21T01:42:13.061Z,99524.06
2022-11-21T01:44:54.463Z,99532.94
2022-11-21T01:47:22.855Z,99523.28
2022-11-21T01:49:52.325Z,99523.31
2022-11-21T01:52:30.462Z,99523.03
2022-11-21T01:55:07.108Z,99524.28
2022-11-21T01:57:44.179Z,99529.59
2022-11-21T02:00:23.217Z,99526.91
2022-11-21T02:02:56.900Z,99525.69
2022-11-21T02:05:30.583Z,99532.53
2022-11-21T02:08:14.618Z,99526.34
2022-11-21T02:11:04.124Z,99527.47
2022-11-21T02:13:31.114Z,99519.41
2022-11-21T02:15:58.665Z,99512.78
2022-11-21T02:18:25.577Z,99510.97
2022-11-21T02:21:05.279Z,99510.19
2022-11-21T02:24:03.818Z,99506.38
2022-11-21T02:26:31.206Z,99511.66
2022-11-21T02:28:58.641Z,99522.44
2022-11-21T02:31:55.646Z,99499.66
2022-11-21T02:38:03.131Z,99521.22
2022-11-21T02:42:05.097Z,99511.22
2022-11-21T03:30:45.106Z,99562.34
2022-11-21T04:24:41.666Z,99532.19
2022-11-21T04:42:01.995Z,99539.94
2022-11-21T04:49:19.852Z,99508.50
2022-11-21T04:53:21.500Z,99504.03
2022-11-21T04:59:17.490Z,99511.00
2022-11-21T05:02:24.057Z,99489.75
2022-11-21T05:06:41.354Z,99509.53
2022-11-21T05:08:22.360Z,99520.28
2022-11-21T05:11:27.520Z,99529.94
2022-11-21T05:14:04.951Z,99521.94
2022-11-21T05:17:08.002Z,99526.44
2022-11-21T05:19:41.555Z,99533.41
2022-11-21T05:22:26.311Z,99536.00
2022-11-21T05:25:07.445Z,99527.00
2022-11-21T05:27:57.315Z,99507.09
2022-11-21T05:31:40.099Z,99511.47
2022-11-21T05:33:56.700Z,99509.69
2022-11-21T05:36:37.933Z,99533.81
2022-11-21T05:43:08.064Z,99537.63
2022-11-21T05:52:55.278Z,99515.00
2022-11-21T05:56:47.241Z,99538.63
2022-11-21T06:02:20.773Z,99521.31
2022-11-21T06:08:34.667Z,99519.06
2022-11-21T06:18:27.341Z,99507.22
2022-11-21T06:25:37.421Z,99506.09
2022-11-21T06:30:11.034Z,99517.81
2022-11-21T06:32:01.686Z,99523.56
2022-11-21T06:35:55.619Z,99498.75
2022-11-21T06:38:35.052Z,99506.06
2022-11-21T06:41:52.981Z,99507.66
2022-11-21T06:45:11.742Z,99526.38
2022-11-21T06:52:18.350Z,99532.81
2022-11-21T06:55:12.941Z,99513.00
2022-11-21T06:58:26.896Z,99540.56
2022-11-21T07:01:17.224Z,99541.72
2022-11-21T07:04:40.760Z,99514.34
2022-11-21T07:08:25.332Z,99520.22
2022-11-21T07:11:29.564Z,99530.72
2022-11-21T07:14:28.719Z,99521.97
2022-11-21T07:17:12.982Z,99517.66
2022-11-21T07:19:51.938Z,99507.69
2022-11-21T07:22:55.911Z,99525.00
2022-11-21T07:26:30.642Z,99506.84
2022-11-21T07:30:12.071Z,99500.66
2022-11-21T07:32:50.814Z,99487.06
2022-11-21T07:38:33.761Z,99473.72
2022-11-21T07:41:23.688Z,99505.97
2022-11-21T07:44:51.160Z,99488.66
2022-11-21T08:11:15.519Z,99502.19
2022-11-21T08:23:35.973Z,99489.66
2022-11-21T08:26:31.583Z,99493.69
2022-11-21T08:29:38.159Z,99495.50
2022-11-21T08:33:08.240Z,99477.84
2022-11-21T08:37:02.180Z,99476.47
2022-11-21T10:04:06.264Z,99417.34
2022-11-21T10:07:04.021Z,99421.97
2022-11-21T10:10:20.970Z,99417.91
2022-11-21T10:13:15.236Z,99413.66
2022-11-21T10:16:18.771Z,99418.03
2022-11-21T10:19:29.879Z,99421.44
2022-11-21T10:22:23.665Z,99415.81
2022-11-21T10:25:03.225Z,99423.03
2022-11-21T10:28:10.998Z,99416.66
2022-11-21T10:30:44.224Z,99405.31
2022-11-21T10:33:36.358Z,99410.53
2022-11-21T10:36:33.661Z,99405.97
2022-11-21T10:39:14.668Z,99401.34
2022-11-21T10:41:54.370Z,99395.28
2022-11-21T10:44:50.551Z,99391.31
2022-11-21T10:47:27.925Z,99391.81
2022-11-21T10:50:20.641Z,99399.03
2022-11-21T10:53:25.349Z,99394.56
2022-11-21T10:56:17.610Z,99398.38
2022-11-21T10:58:49.964Z,99398.47
2022-11-21T11:01:31.702Z,99398.50
2022-11-21T11:04:26.683Z,99398.81
2022-11-21T11:06:54.540Z,99395.53
2022-11-21T11:09:30.266Z,99401.97
2022-11-21T11:12:50.993Z,99393.31
2022-11-21T11:15:26.764Z,99411.91
2022-11-21T11:18:02.734Z,99419.16
2022-11-21T11:20:41.434Z,99411.06
2022-11-21T11:23:20.645Z,99411.91
2022-11-21T11:25:51.047Z,99417.63
2022-11-21T11:28:19.379Z,99418.94
2022-11-21T11:30:49.069Z,99410.28
2022-11-21T11:33:37.070Z,99416.53
2022-11-21T11:36:33.988Z,99400.50
2022-11-21T11:39:09.403Z,99404.38
2022-11-21T11:42:45.126Z,99398.19
2022-11-21T11:45:30.279Z,99399.38
2022-11-21T11:48:19.847Z,99386.41
2022-11-21T11:51:04.490Z,99395.84
2022-11-21T11:53:44.885Z,99391.97
2022-11-21T11:56:43.743Z,99389.28
2022-11-21T11:59:18.889Z,99384.59
2022-11-21T12:02:11.642Z,99386.28
2022-11-21T12:04:50.976Z,99394.38
2022-11-21T12:08:33.082Z,99397.72
2022-11-21T12:10:28.672Z,99396.41
2022-11-21T12:13:16.382Z,99379.19
2022-11-21T12:15:52.626Z,99382.69
2022-11-21T12:18:19.582Z,99390.63
2022-11-21T12:21:15.364Z,99372.97
2022-11-21T12:23:55.942Z,99371.28
2022-11-21T12:27:10.940Z,99363.09
2022-11-21T12:30:16.073Z,99360.69
2022-11-21T12:33:17.646Z,99352.28
2022-11-21T12:36:16.269Z,99340.16
2022-11-21T12:39:03.375Z,99351.84
2022-11-21T12:42:20.226Z,99358.25
2022-11-21T12:45:43.033Z,99342.06
2022-11-21T12:48:44.094Z,99342.84
2022-11-21T12:51:38.922Z,99333.72
2022-11-21T12:54:40.957Z,99328.66
2022-11-21T12:57:11.767Z,99312.09
2022-11-21T13:00:12.322Z,99323.53
2022-11-21T13:03:04.003Z,99325.63
2022-11-21T13:05:40.766Z,99324.53
2022-11-21T13:08:24.730Z,99316.66
2022-11-21T13:11:31.136Z,99327.38
2022-11-21T13:14:27.374Z,99336.75
2022-11-21T13:17:26.355Z,99329.06
2022-11-21T13:20:02.303Z,99322.31
2022-11-21T13:22:38.115Z,99335.25
2022-11-21T13:25:39.587Z,99327.59
2022-11-21T13:28:18.769Z,99331.41
2022-11-21T13:30:56.789Z,99319.13
2022-11-21T13:33:36.044Z,99321.41
2022-11-21T13:36:12.054Z,99313.19
2022-11-21T13:38:53.969Z,99316.53
2022-11-21T13:41:54.747Z,99319.59
2022-11-21T13:44:30.698Z,99320.84
2022-11-21T13:47:15.047Z,99316.13
2022-11-21T13:50:04.692Z,99308.31
2022-11-21T13:52:43.951Z,99316.75
2022-11-21T13:56:06.238Z,99309.13
2022-11-21T13:58:53.853Z,99305.81
2022-11-21T14:01:36.166Z,99306.25
2022-11-21T14:04:44.831Z,99303.09
2022-11-21T14:07:34.029Z,99308.19
2022-11-21T14:10:26.737Z,99302.88
2022-11-21T14:12:56.063Z,99301.00
2022-11-21T14:16:16.483Z,99300.53
2022-11-21T14:18:47.179Z,99295.59
2022-11-21T14:21:29.796Z,99294.06
2022-11-21T14:24:00.222Z,99290.44
2022-11-21T14:26:31.098Z,99292.50
2022-11-21T14:29:28.164Z,99295.81
2022-11-21T14:31:56.078Z,99291.19
2022-11-21T14:34:29.014Z,99289.84
2022-11-21T14:37:00.550Z,99291.78
2022-11-21T14:39:38.091Z,99303.69
2022-11-21T14:42:16.409Z,99304.88
2022-11-21T14:44:44.135Z,99304.59
2022-11-21T14:47:26.211Z,99313.81
2022-11-21T14:50:00.943Z,99305.34
2022-11-21T14:52:33.990Z,99301.63
2022-11-21T14:55:28.967Z,99302.59
2022-11-21T14:57:55.890Z,99305.63
2022-11-21T15:00:58.076Z,99310.41
2022-11-21T15:03:21.596Z,99313.13
2022-11-21T15:06:07.268Z,99312.50
2022-11-21T15:11:37.293Z,99317.94
2022-11-21T15:14:17.744Z,99314.59
2022-11-21T15:16:52.959Z,99307.63
2022-11-21T15:19:32.670Z,99309.16
2022-11-21T15:22:04.731Z,99290.28
2022-11-21T15:24:43.374Z,99302.50
2022-11-21T15:27:28.695Z,99293.53
2022-11-21T15:30:12.409Z,99302.97
2022-11-21T15:34:12.229Z,99299.84
2022-11-21T15:36:37.447Z,99299.03
2022-11-21T15:39:07.236Z,99289.25
2022-11-21T15:41:36.513Z,99299.81
2022-11-21T15:44:03.363Z,99306.97
2022-11-21T15:46:33.478Z,99309.72
2022-11-21T15:49:30.863Z,99298.28
2022-11-21T15:52:09.938Z,99302.69
2022-11-21T15:54:37.263Z,99293.63
2022-11-21T15:57:04.209Z,99302.00
2022-11-21T15:59:31.778Z,99291.94
2022-11-21T16:01:58.907Z,99310.59
2022-11-21T16:04:26.375Z,99302.63
2022-11-21T16:06:56.436Z,99306.16
2022-11-21T16:09:23.405Z,99302.66
2022-11-21T16:11:50.414Z,99307.56
2022-11-21T16:14:20.787Z,99294.03
2022-11-21T16:16:47.956Z,99299.66
2022-11-21T16:19:15.751Z,99297.00
2022-11-21T16:21:43.299Z,99301.19
2022-11-21T16:24:10.399Z,99283.88
2022-11-21T16:26:37.451Z,99306.00
2022-11-21T16:29:07.449Z,99307.53
2022-11-21T16:31:34.785Z,99304.47
2022-11-21T16:34:01.917Z,99299.66
2022-11-21T16:36:31.185Z,99306.41
2022-11-21T16:39:05.229Z,99300.22
2022-11-21T16:41:35.353Z,99303.97
2022-11-21T16:44:02.403Z,99305.53
2022-11-21T16:46:29.357Z,99306.31
2022-11-21T16:49:02.197Z,99301.34
2022-11-21T16:51:30.279Z,99297.25
2022-11-21T16:54:00.560Z,99308.13
2022-11-21T16:56:28.810Z,99301.38
2022-11-21T16:58:56.222Z,99304.38
2022-11-21T17:01:26.183Z,99296.56
2022-11-21T17:03:53.360Z,99287.78
2022-11-21T17:06:28.451Z,99295.44
2022-11-21T17:08:55.743Z,99306.25
2022-11-21T17:11:28.249Z,99296.56
2022-11-21T17:13:58.628Z,99292.03
2022-11-21T17:16:25.694Z,99296.25
2022-11-21T17:18:58.166Z,99290.63
2022-11-21T17:21:26.318Z,99289.97
2022-11-21T17:23:53.697Z,99299.72
2022-11-21T17:26:24.138Z,99288.84
2022-11-21T17:28:56.203Z,99287.78
2022-11-21T17:31:23.611Z,99283.97
2022-11-21T17:33:51.707Z,99286.91
2022-11-21T17:36:21.697Z,99276.81
2022-11-21T17:38:49.276Z,99279.41
2022-11-21T17:41:18.597Z,99273.00
2022-11-21T17:43:47.178Z,99274.88
2022-11-21T17:46:20.038Z,99287.97
2022-11-21T17:48:54.897Z,99291.69
2022-11-21T17:51:29.338Z,99291.13
2022-11-21T17:53:57.154Z,99287.63
2022-11-21T17:56:28.867Z,99292.50
2022-11-21T17:58:56.433Z,99287.78
2022-11-21T18:01:23.745Z,99288.75
2022-11-21T18:04:10.130Z,99286.16
2022-11-21T18:06:40.641Z,99297.38
2022-11-21T18:09:10.870Z,99292.50
2022-11-21T18:11:40.299Z,99283.56
2022-11-21T18:14:10.058Z,99293.00
2022-11-21T18:16:39.524Z,99295.69
2022-11-21T18:19:07.589Z,99292.19
2022-11-21T18:21:38.197Z,99291.63
2022-11-21T18:24:05.590Z,99303.50
2022-11-21T18:26:37.004Z,99294.47
2022-11-21T18:31:54.593Z,99286.59
2022-11-21T18:34:21.535Z,99291.28
2022-11-21T18:36:48.461Z,99285.44
2022-11-21T18:39:26.327Z,99291.19
2022-11-21T18:41:53.364Z,99283.25
2022-11-21T18:44:22.340Z,99294.03
2022-11-21T18:46:49.801Z,99286.47
2022-11-21T18:49:16.833Z,99286.91
2022-11-21T18:51:44.189Z,99285.41
2022-11-21T18:54:11.681Z,99291.13
2022-11-21T18:56:39.875Z,99289.25
2022-11-21T18:59:07.593Z,99295.75
2022-11-21T19:01:37.089Z,99286.47
2022-11-21T19:04:04.935Z,99286.16
2022-11-21T19:06:32.548Z,99295.78
2022-11-21T19:08:59.716Z,99291.47
2022-11-21T19:11:29.188Z,99291.56
2022-11-21T19:13:58.057Z,99289.03
2022-11-21T19:16:27.455Z,99287.59
2022-11-21T19:21:42.581Z,99297.72
2022-11-21T19:24:14.661Z,99300.34
2022-11-21T19:26:42.956Z,99299.19
2022-11-21T19:29:10.761Z,99305.03
2022-11-21T19:31:44.701Z,99297.03
2022-11-21T19:34:16.708Z,99296.69
2022-11-21T19:36:44.965Z,99308.38
2022-11-21T19:39:12.709Z,99296.69
2022-11-21T19:41:39.760Z,99296.56
2022-11-21T19:44:06.731Z,99299.28
2022-11-21T19:46:38.151Z,99295.94
2022-11-21T19:49:06.695Z,99296.38
2022-11-21T19:51:41.105Z,99308.59
2022-11-21T19:54:11.119Z,99305.91
2022-11-21T19:56:38.192Z,99313.81
2022-11-21T19:59:05.649Z,99319.09
2022-11-21T20:01:34.865Z,99307.19
2022-11-21T20:04:04.245Z,99311.94
2022-11-21T20:06:41.365Z,99312.75
2022-11-21T20:09:10.964Z,99312.06
2022-11-21T20:11:40.963Z,99320.63
2022-11-21T20:14:08.943Z,99323.47
2022-11-21T20:16:39.571Z,99330.03
2022-11-21T20:19:10.544Z,99341.28
2022-11-21T20:21:38.998Z,99334.28
2022-11-21T20:24:07.422Z,99331.59
2022-11-21T20:26:35.726Z,99326.22
2022-11-21T20:29:04.187Z,99333.38
2022-11-21T20:31:37.300Z,99326.47
2022-11-21T20:34:13.558Z,99324.91
2022-11-21T20:36:41.607Z,99329.91
2022-11-21T20:39:16.939Z,99325.31
2022-11-21T20:41:45.762Z,99320.53
2022-11-21T20:45:25.736Z,99324.34
2022-11-21T20:47:07.469Z,99325.25
2022-11-21T20:49:34.971Z,99332.00
2022-11-21T20:54:48.879Z,99329.91
2022-11-21T20:57:15.932Z,99339.41
2022-11-21T20:59:43.276Z,99342.09
2022-11-21T21:02:14.348Z,99344.13
2022-11-21T21:04:42.272Z,99342.50
2022-11-21T21:07:09.732Z,99345.44
2022-11-21T21:09:36.774Z,99341.50
2022-11-21T21:12:05.099Z,99342.34
2022-11-21T21:14:32.073Z,99346.41
2022-11-21T21:16:59.002Z,99344.94
2022-11-21T21:19:26.002Z,99331.84
2022-11-21T21:21:52.942Z,99333.31
2022-11-21T21:24:20.030Z,99334.03
2022-11-21T21:26:49.001Z,99340.91
2022-11-21T21:29:19.747Z,99344.94
2022-11-21T21:31:51.497Z,99354.16
2022-11-21T21:34:21.181Z,99342.34
2022-11-21T21:36:49.011Z,99341.84
2022-11-21T21:39:15.975Z,99342.75
2022-11-21T21:41:46.804Z,99337.00
2022-11-21T21:44:14.920Z,99346.00
2022-11-21T21:46:42.155Z,99343.97
2022-11-21T21:49:09.127Z,99350.97
2022-11-21T21:51:37.470Z,99347.56
2022-11-21T21:54:05.131Z,99348.34
2022-11-21T21:56:32.662Z,99348.78
2022-11-21T21:59:00.043Z,99353.91
2022-11-21T22:01:32.256Z,99348.94
2022-11-21T22:04:02.673Z,99347.47
2022-11-21T22:06:32.836Z,99346.72
2022-11-21T22:08:59.769Z,99338.53
2022-11-21T22:11:33.008Z,99339.41
2022-11-21T22:14:03.969Z,99347.66
2022-11-21T22:16:31.780Z,99349.91
2022-11-21T22:18:59.189Z,99353.81
2022-11-21T22:21:32.998Z,99343.41
2022-11-21T22:24:24.696Z,99343.97
2022-11-21T22:26:52.338Z,99342.00
2022-11-21T22:29:19.313Z,99348.19
2022-11-21T22:31:46.403Z,99357.88
2022-11-21T22:34:14.272Z,99354.28
2022-11-21T22:36:41.762Z,99358.88
2022-11-21T22:39:09.140Z,99354.53
2022-11-21T22:41:36.194Z,99352.91
2022-11-21T22:44:03.359Z,99353.97
2022-11-21T22:46:31.344Z,99356.75
2022-11-21T22:48:59.334Z,99350.81
2022-11-21T22:51:29.696Z,99356.16
2022-11-21T22:53:57.519Z,99356.41
2022-11-21T22:56:25.758Z,99362.03
2022-11-21T22:58:53.154Z,99356.09
2022-11-21T23:01:23.587Z,99354.53
2022-11-21T23:03:51.327Z,99357.00
2022-11-21T23:06:21.973Z,99366.75
2022-11-21T23:08:49.751Z,99366.34
2022-11-21T23:11:22.723Z,99358.31
2022-11-21T23:13:50.536Z,99364.63
2022-11-21T23:16:18.597Z,99361.53
2022-11-21T23:18:45.933Z,99361.03
2022-11-21T23:21:14.201Z,99361.97
2022-11-21T23:23:41.463Z,99362.66
2022-11-21T23:26:08.413Z,99359.59
2022-11-21T23:28:35.309Z,99360.06
2022-11-21T23:31:02.686Z,99364.06
2022-11-21T23:33:29.751Z,99352.03
2022-11-21T23:35:56.775Z,99358.94
2022-11-21T23:38:23.911Z,99356.16
2022-11-21T23:40:50.992Z,99360.25
2022-11-21T23:43:18.984Z,99355.59
2022-11-21T23:45:51.621Z,99353.56
2022-11-21T23:48:19.788Z,99348.47
2022-11-21T23:50:48.152Z,99341.69
2022-11-21T23:53:15.203Z,99343.75
2022-11-21T23:55:43.877Z,99350.56
2022-11-21T23:58:12.949Z,99354.16
